sensor_id;sensor_type;location;lat;lon;timestamp;temperature;humidity
10175;DHT22;18221;38.704;0.152;2023-12-07T00:00:16;11.70;99.90
10175;DHT22;18221;38.704;0.152;2023-12-07T00:02:44;11.70;99.90
10175;DHT22;18221;38.704;0.152;2023-12-07T00:05:12;11.70;99.90
10175;DHT22;18221;38.704;0.152;2023-12-07T00:07:40;11.70;99.90
10175;DHT22;18221;38.704;0.152;2023-12-07T00:10:10;11.70;99.90
10175;DHT22;18221;38.704;0.152;2023-12-07T00:12:38;11.70;99.90
10175;DHT22;18221;38.704;0.152;2023-12-07T00:15:06;11.70;99.90
10175;DHT22;18221;38.704;0.152;2023-12-07T00:17:35;11.70;99.90
10175;DHT22;18221;38.704;0.152;2023-12-07T00:20:04;11.60;99.90
10175;DHT22;18221;38.704;0.152;2023-12-07T00:22:33;11.70;99.90
10175;DHT22;18221;38.704;0.152;2023-12-07T00:25:01;11.70;99.90
10175;DHT22;18221;38.704;0.152;2023-12-07T00:27:31;11.70;99.90
10175;DHT22;18221;38.704;0.152;2023-12-07T00:30:01;11.60;99.90
10175;DHT22;18221;38.704;0.152;2023-12-07T00:32:29;11.70;99.90
10175;DHT22;18221;38.704;0.152;2023-12-07T00:34:57;11.70;99.90
10175;DHT22;18221;38.704;0.152;2023-12-07T00:37:25;11.60;99.90
10175;DHT22;18221;38.704;0.152;2023-12-07T00:39:53;11.70;99.90
10175;DHT22;18221;38.704;0.152;2023-12-07T00:42:22;11.60;99.90
10175;DHT22;18221;38.704;0.152;2023-12-07T00:44:51;11.60;99.90
10175;DHT22;18221;38.704;0.152;2023-12-07T00:47:19;11.70;99.90
10175;DHT22;18221;38.704;0.152;2023-12-07T00:49:48;11.70;99.90
10175;DHT22;18221;38.704;0.152;2023-12-07T01:02:52;11.60;99.90
10175;DHT22;18221;38.704;0.152;2023-12-07T01:05:21;11.60;99.90
10175;DHT22;18221;38.704;0.152;2023-12-07T01:07:49;11.60;99.90
10175;DHT22;18221;38.704;0.152;2023-12-07T01:10:17;11.70;99.90
10175;DHT22;18221;38.704;0.152;2023-12-07T01:12:45;11.60;99.90
10175;DHT22;18221;38.704;0.152;2023-12-07T01:15:13;11.50;99.90
10175;DHT22;18221;38.704;0.152;2023-12-07T01:17:41;11.60;99.90
10175;DHT22;18221;38.704;0.152;2023-12-07T01:20:11;11.60;99.90
10175;DHT22;18221;38.704;0.152;2023-12-07T01:22:40;11.60;99.90
10175;DHT22;18221;38.704;0.152;2023-12-07T01:25:08;11.60;99.90
10175;DHT22;18221;38.704;0.152;2023-12-07T01:27:36;11.60;99.90
10175;DHT22;18221;38.704;0.152;2023-12-07T01:30:05;11.60;99.90
10175;DHT22;18221;38.704;0.152;2023-12-07T01:32:34;11.60;99.90
10175;DHT22;18221;38.704;0.152;2023-12-07T01:35:02;11.60;99.90
10175;DHT22;18221;38.704;0.152;2023-12-07T01:37:32;11.60;99.90
10175;DHT22;18221;38.704;0.152;2023-12-07T01:40:01;11.60;99.90
10175;DHT22;18221;38.704;0.152;2023-12-07T01:42:31;11.60;99.90
10175;DHT22;18221;38.704;0.152;2023-12-07T01:44:59;11.60;99.90
10175;DHT22;18221;38.704;0.152;2023-12-07T01:47:28;11.60;99.90
10175;DHT22;18221;38.704;0.152;2023-12-07T01:49:56;11.50;99.90
10175;DHT22;18221;38.704;0.152;2023-12-07T01:52:27;11.50;99.90
10175;DHT22;18221;38.704;0.152;2023-12-07T01:54:58;11.50;99.90
10175;DHT22;18221;38.704;0.152;2023-12-07T01:57:27;11.60;99.90
10175;DHT22;18221;38.704;0.152;2023-12-07T01:59:56;11.60;99.90
10175;DHT22;18221;38.704;0.152;2023-12-07T02:02:24;11.60;99.90
10175;DHT22;18221;38.704;0.152;2023-12-07T02:04:52;11.60;99.90
10175;DHT22;18221;38.704;0.152;2023-12-07T02:07:21;11.60;99.90
10175;DHT22;18221;38.704;0.152;2023-12-07T02:09:50;11.50;99.90
10175;DHT22;18221;38.704;0.152;2023-12-07T02:12:20;11.60;99.90
10175;DHT22;18221;38.704;0.152;2023-12-07T02:14:48;11.50;99.90
10175;DHT22;18221;38.704;0.152;2023-12-07T02:17:21;11.50;99.90
10175;DHT22;18221;38.704;0.152;2023-12-07T02:20:01;11.50;99.90
10175;DHT22;18221;38.704;0.152;2023-12-07T02:22:39;11.50;99.90
10175;DHT22;18221;38.704;0.152;2023-12-07T02:25:10;11.50;99.90
10175;DHT22;18221;38.704;0.152;2023-12-07T02:27:43;11.50;99.90
10175;DHT22;18221;38.704;0.152;2023-12-07T02:30:12;11.40;99.90
10175;DHT22;18221;38.704;0.152;2023-12-07T02:32:43;11.40;99.90
10175;DHT22;18221;38.704;0.152;2023-12-07T02:35:12;11.40;99.90
10175;DHT22;18221;38.704;0.152;2023-12-07T02:37:43;11.40;99.90
10175;DHT22;18221;38.704;0.152;2023-12-07T02:40:15;11.40;99.90
10175;DHT22;18221;38.704;0.152;2023-12-07T02:42:47;11.40;99.90
10175;DHT22;18221;38.704;0.152;2023-12-07T02:45:16;11.40;99.90
10175;DHT22;18221;38.704;0.152;2023-12-07T02:47:44;11.40;99.90
10175;DHT22;18221;38.704;0.152;2023-12-07T02:50:12;11.40;99.90
10175;DHT22;18221;38.704;0.152;2023-12-07T02:52:41;11.40;99.90
10175;DHT22;18221;38.704;0.152;2023-12-07T02:55:09;11.40;99.90
10175;DHT22;18221;38.704;0.152;2023-12-07T02:57:37;11.40;99.90
10175;DHT22;18221;38.704;0.152;2023-12-07T03:00:08;11.40;99.90
10175;DHT22;18221;38.704;0.152;2023-12-07T03:02:40;11.40;99.90
10175;DHT22;18221;38.704;0.152;2023-12-07T03:05:08;11.40;99.90
10175;DHT22;18221;38.704;0.152;2023-12-07T03:07:36;11.40;99.90
10175;DHT22;18221;38.704;0.152;2023-12-07T03:10:05;11.30;99.90
10175;DHT22;18221;38.704;0.152;2023-12-07T03:12:34;11.30;99.90
10175;DHT22;18221;38.704;0.152;2023-12-07T03:15:02;11.30;99.90
10175;DHT22;18221;38.704;0.152;2023-12-07T03:17:33;11.30;99.90
10175;DHT22;18221;38.704;0.152;2023-12-07T03:20:01;11.30;99.90
10175;DHT22;18221;38.704;0.152;2023-12-07T03:22:31;11.30;99.90
10175;DHT22;18221;38.704;0.152;2023-12-07T03:25:00;11.30;99.90
10175;DHT22;18221;38.704;0.152;2023-12-07T03:27:28;11.40;99.90
10175;DHT22;18221;38.704;0.152;2023-12-07T03:29:55;11.40;99.90
10175;DHT22;18221;38.704;0.152;2023-12-07T03:32:24;11.40;99.90
10175;DHT22;18221;38.704;0.152;2023-12-07T03:34:53;11.40;99.90
10175;DHT22;18221;38.704;0.152;2023-12-07T03:37:21;11.40;99.90
10175;DHT22;18221;38.704;0.152;2023-12-07T03:39:49;11.40;99.90
10175;DHT22;18221;38.704;0.152;2023-12-07T03:42:17;11.40;99.90
10175;DHT22;18221;38.704;0.152;2023-12-07T03:44:45;11.40;99.90
10175;DHT22;18221;38.704;0.152;2023-12-07T03:47:16;11.30;99.90
10175;DHT22;18221;38.704;0.152;2023-12-07T03:49:44;11.30;99.90
10175;DHT22;18221;38.704;0.152;2023-12-07T03:52:13;11.40;99.90
10175;DHT22;18221;38.704;0.152;2023-12-07T03:54:41;11.30;99.90
10175;DHT22;18221;38.704;0.152;2023-12-07T03:57:09;11.30;99.90
10175;DHT22;18221;38.704;0.152;2023-12-07T03:59:37;11.30;99.90
10175;DHT22;18221;38.704;0.152;2023-12-07T04:02:05;11.30;99.90
10175;DHT22;18221;38.704;0.152;2023-12-07T04:04:33;12.60;99.90
10175;DHT22;18221;38.704;0.152;2023-12-07T04:07:01;11.30;99.90
10175;DHT22;18221;38.704;0.152;2023-12-07T04:09:31;11.40;99.90
10175;DHT22;18221;38.704;0.152;2023-12-07T04:11:59;11.30;99.90
10175;DHT22;18221;38.704;0.152;2023-12-07T04:14:27;11.30;99.90
10175;DHT22;18221;38.704;0.152;2023-12-07T04:16:55;11.30;99.90
10175;DHT22;18221;38.704;0.152;2023-12-07T04:19:24;11.30;99.90
10175;DHT22;18221;38.704;0.152;2023-12-07T04:21:52;11.30;99.90
10175;DHT22;18221;38.704;0.152;2023-12-07T04:24:20;11.30;99.90
10175;DHT22;18221;38.704;0.152;2023-12-07T04:26:49;11.30;99.90
10175;DHT22;18221;38.704;0.152;2023-12-07T04:29:18;11.20;99.90
10175;DHT22;18221;38.704;0.152;2023-12-07T04:31:46;11.30;99.90
10175;DHT22;18221;38.704;0.152;2023-12-07T04:34:14;11.30;99.90
10175;DHT22;18221;38.704;0.152;2023-12-07T04:36:42;11.20;99.90
10175;DHT22;18221;38.704;0.152;2023-12-07T04:39:10;11.30;99.90
10175;DHT22;18221;38.704;0.152;2023-12-07T04:41:38;11.20;99.90
10175;DHT22;18221;38.704;0.152;2023-12-07T04:44:07;11.30;99.90
10175;DHT22;18221;38.704;0.152;2023-12-07T04:46:36;11.30;99.90
10175;DHT22;18221;38.704;0.152;2023-12-07T04:49:05;11.30;99.90
10175;DHT22;18221;38.704;0.152;2023-12-07T04:51:33;11.30;99.90
10175;DHT22;18221;38.704;0.152;2023-12-07T04:54:01;11.30;99.90
10175;DHT22;18221;38.704;0.152;2023-12-07T04:56:29;11.30;99.90
10175;DHT22;18221;38.704;0.152;2023-12-07T04:58:57;11.30;99.90
10175;DHT22;18221;38.704;0.152;2023-12-07T05:01:27;11.30;99.90
10175;DHT22;18221;38.704;0.152;2023-12-07T05:03:55;11.30;99.90
10175;DHT22;18221;38.704;0.152;2023-12-07T05:06:23;11.30;99.90
10175;DHT22;18221;38.704;0.152;2023-12-07T05:08:52;11.40;99.90
10175;DHT22;18221;38.704;0.152;2023-12-07T05:11:20;11.40;99.90
10175;DHT22;18221;38.704;0.152;2023-12-07T05:13:48;11.30;99.90
10175;DHT22;18221;38.704;0.152;2023-12-07T05:16:17;11.30;99.90
10175;DHT22;18221;38.704;0.152;2023-12-07T05:18:46;11.30;99.90
10175;DHT22;18221;38.704;0.152;2023-12-07T05:21:14;11.30;99.90
10175;DHT22;18221;38.704;0.152;2023-12-07T05:23:46;11.30;99.90
10175;DHT22;18221;38.704;0.152;2023-12-07T05:26:14;11.30;99.90
10175;DHT22;18221;38.704;0.152;2023-12-07T05:28:43;11.40;99.90
10175;DHT22;18221;38.704;0.152;2023-12-07T05:31:16;11.30;99.90
10175;DHT22;18221;38.704;0.152;2023-12-07T05:33:46;11.30;99.90
10175;DHT22;18221;38.704;0.152;2023-12-07T05:36:14;11.30;99.90
10175;DHT22;18221;38.704;0.152;2023-12-07T05:38:42;11.30;99.90
10175;DHT22;18221;38.704;0.152;2023-12-07T05:41:10;11.30;99.90
10175;DHT22;18221;38.704;0.152;2023-12-07T05:43:41;11.30;99.90
10175;DHT22;18221;38.704;0.152;2023-12-07T05:46:09;11.30;99.90
10175;DHT22;18221;38.704;0.152;2023-12-07T05:48:37;11.30;99.90
10175;DHT22;18221;38.704;0.152;2023-12-07T05:51:12;11.30;99.90
10175;DHT22;18221;38.704;0.152;2023-12-07T05:53:40;11.30;99.90
10175;DHT22;18221;38.704;0.152;2023-12-07T05:56:09;11.30;99.90
10175;DHT22;18221;38.704;0.152;2023-12-07T05:58:37;11.30;99.90
10175;DHT22;18221;38.704;0.152;2023-12-07T06:01:05;11.30;99.90
10175;DHT22;18221;38.704;0.152;2023-12-07T06:03:33;11.30;99.90
10175;DHT22;18221;38.704;0.152;2023-12-07T06:06:01;11.30;99.90
10175;DHT22;18221;38.704;0.152;2023-12-07T06:08:31;11.30;99.90
10175;DHT22;18221;38.704;0.152;2023-12-07T06:11:00;11.30;99.90
10175;DHT22;18221;38.704;0.152;2023-12-07T06:13:27;11.30;99.90
10175;DHT22;18221;38.704;0.152;2023-12-07T06:15:55;11.20;99.90
10175;DHT22;18221;38.704;0.152;2023-12-07T06:18:23;11.20;99.90
10175;DHT22;18221;38.704;0.152;2023-12-07T06:20:51;11.20;99.90
10175;DHT22;18221;38.704;0.152;2023-12-07T06:23:19;11.20;99.90
10175;DHT22;18221;38.704;0.152;2023-12-07T06:25:49;11.20;99.90
10175;DHT22;18221;38.704;0.152;2023-12-07T06:28:17;11.10;99.90
10175;DHT22;18221;38.704;0.152;2023-12-07T06:30:45;11.20;99.90
10175;DHT22;18221;38.704;0.152;2023-12-07T06:33:13;11.20;99.90
10175;DHT22;18221;38.704;0.152;2023-12-07T06:35:41;11.20;99.90
10175;DHT22;18221;38.704;0.152;2023-12-07T06:38:09;11.10;99.90
10175;DHT22;18221;38.704;0.152;2023-12-07T06:40:37;11.10;99.90
10175;DHT22;18221;38.704;0.152;2023-12-07T06:43:07;11.10;99.90
10175;DHT22;18221;38.704;0.152;2023-12-07T06:45:35;11.10;99.90
10175;DHT22;18221;38.704;0.152;2023-12-07T06:48:04;11.10;99.90
10175;DHT22;18221;38.704;0.152;2023-12-07T06:50:32;11.20;99.90
10175;DHT22;18221;38.704;0.152;2023-12-07T06:53:01;11.20;99.90
10175;DHT22;18221;38.704;0.152;2023-12-07T06:55:29;11.10;99.90
10175;DHT22;18221;38.704;0.152;2023-12-07T06:57:58;11.20;99.90
10175;DHT22;18221;38.704;0.152;2023-12-07T07:00:27;11.20;99.90
10175;DHT22;18221;38.704;0.152;2023-12-07T07:02:55;11.30;99.90
10175;DHT22;18221;38.704;0.152;2023-12-07T07:05:23;11.30;99.90
10175;DHT22;18221;38.704;0.152;2023-12-07T07:07:51;11.30;99.90
10175;DHT22;18221;38.704;0.152;2023-12-07T07:10:21;11.30;99.90
10175;DHT22;18221;38.704;0.152;2023-12-07T07:12:50;11.30;99.90
10175;DHT22;18221;38.704;0.152;2023-12-07T07:15:18;11.30;99.90
10175;DHT22;18221;38.704;0.152;2023-12-07T07:17:47;11.40;99.90
10175;DHT22;18221;38.704;0.152;2023-12-07T07:20:15;11.30;99.90
10175;DHT22;18221;38.704;0.152;2023-12-07T07:22:44;11.40;99.90
10175;DHT22;18221;38.704;0.152;2023-12-07T07:25:12;11.40;99.90
10175;DHT22;18221;38.704;0.152;2023-12-07T07:27:42;11.40;99.90
10175;DHT22;18221;38.704;0.152;2023-12-07T07:30:11;11.50;99.90
10175;DHT22;18221;38.704;0.152;2023-12-07T07:32:40;11.50;99.90
10175;DHT22;18221;38.704;0.152;2023-12-07T07:35:09;11.50;99.90
10175;DHT22;18221;38.704;0.152;2023-12-07T07:37:38;11.50;99.90
10175;DHT22;18221;38.704;0.152;2023-12-07T07:40:08;11.50;99.90
10175;DHT22;18221;38.704;0.152;2023-12-07T07:42:37;11.50;99.90
10175;DHT22;18221;38.704;0.152;2023-12-07T07:45:07;11.50;99.90
10175;DHT22;18221;38.704;0.152;2023-12-07T07:47:37;11.50;99.90
10175;DHT22;18221;38.704;0.152;2023-12-07T07:50:06;11.50;99.90
10175;DHT22;18221;38.704;0.152;2023-12-07T07:52:35;11.50;99.90
10175;DHT22;18221;38.704;0.152;2023-12-07T07:55:04;11.50;99.90
10175;DHT22;18221;38.704;0.152;2023-12-07T07:57:33;11.50;99.90
10175;DHT22;18221;38.704;0.152;2023-12-07T08:00:01;11.60;99.90
10175;DHT22;18221;38.704;0.152;2023-12-07T08:02:31;11.60;99.90
10175;DHT22;18221;38.704;0.152;2023-12-07T08:04:59;11.60;99.90
10175;DHT22;18221;38.704;0.152;2023-12-07T08:07:27;11.70;99.90
10175;DHT22;18221;38.704;0.152;2023-12-07T08:09:57;11.70;99.90
10175;DHT22;18221;38.704;0.152;2023-12-07T08:12:25;11.70;99.90
10175;DHT22;18221;38.704;0.152;2023-12-07T08:14:53;11.70;99.90
10175;DHT22;18221;38.704;0.152;2023-12-07T08:17:22;11.70;99.90
10175;DHT22;18221;38.704;0.152;2023-12-07T08:19:52;11.70;99.90
10175;DHT22;18221;38.704;0.152;2023-12-07T08:22:20;11.80;99.90
10175;DHT22;18221;38.704;0.152;2023-12-07T08:24:47;11.80;99.90
10175;DHT22;18221;38.704;0.152;2023-12-07T08:27:17;11.90;99.90
10175;DHT22;18221;38.704;0.152;2023-12-07T08:29:45;12.70;99.90
10175;DHT22;18221;38.704;0.152;2023-12-07T08:32:13;11.90;99.90
10175;DHT22;18221;38.704;0.152;2023-12-07T08:34:42;11.90;99.90
10175;DHT22;18221;38.704;0.152;2023-12-07T08:37:10;11.90;99.90
10175;DHT22;18221;38.704;0.152;2023-12-07T08:39:38;11.90;99.90
10175;DHT22;18221;38.704;0.152;2023-12-07T08:42:06;11.90;99.90
10175;DHT22;18221;38.704;0.152;2023-12-07T08:44:35;12.00;99.90
10175;DHT22;18221;38.704;0.152;2023-12-07T08:47:03;12.00;99.90
10175;DHT22;18221;38.704;0.152;2023-12-07T08:49:32;12.10;99.90
10175;DHT22;18221;38.704;0.152;2023-12-07T08:52:00;12.10;99.90
10175;DHT22;18221;38.704;0.152;2023-12-07T08:54:28;12.10;99.90
10175;DHT22;18221;38.704;0.152;2023-12-07T08:56:56;12.10;99.90
10175;DHT22;18221;38.704;0.152;2023-12-07T08:59:24;12.20;99.90
10175;DHT22;18221;38.704;0.152;2023-12-07T09:01:54;12.20;99.90
10175;DHT22;18221;38.704;0.152;2023-12-07T09:04:25;12.20;99.90
10175;DHT22;18221;38.704;0.152;2023-12-07T09:06:54;12.30;99.90
10175;DHT22;18221;38.704;0.152;2023-12-07T09:09:22;12.30;99.90
10175;DHT22;18221;38.704;0.152;2023-12-07T09:11:51;12.30;99.90
10175;DHT22;18221;38.704;0.152;2023-12-07T09:14:19;12.30;99.90
10175;DHT22;18221;38.704;0.152;2023-12-07T09:16:48;12.40;99.90
10175;DHT22;18221;38.704;0.152;2023-12-07T09:19:17;12.50;99.90
10175;DHT22;18221;38.704;0.152;2023-12-07T09:21:45;12.50;99.90
10175;DHT22;18221;38.704;0.152;2023-12-07T09:24:14;12.50;99.90
10175;DHT22;18221;38.704;0.152;2023-12-07T09:26:41;12.60;99.90
10175;DHT22;18221;38.704;0.152;2023-12-07T09:29:10;12.60;99.90
10175;DHT22;18221;38.704;0.152;2023-12-07T09:31:38;12.60;99.90
10175;DHT22;18221;38.704;0.152;2023-12-07T09:34:06;12.60;99.90
10175;DHT22;18221;38.704;0.152;2023-12-07T09:36:36;12.70;99.90
10175;DHT22;18221;38.704;0.152;2023-12-07T09:39:04;12.70;99.90
10175;DHT22;18221;38.704;0.152;2023-12-07T09:41:33;12.70;99.90
10175;DHT22;18221;38.704;0.152;2023-12-07T09:44:01;12.80;99.90
10175;DHT22;18221;38.704;0.152;2023-12-07T09:46:30;12.90;99.90
10175;DHT22;18221;38.704;0.152;2023-12-07T09:48:58;12.80;99.90
10175;DHT22;18221;38.704;0.152;2023-12-07T09:51:28;12.80;99.90
10175;DHT22;18221;38.704;0.152;2023-12-07T09:54:00;12.90;99.90
10175;DHT22;18221;38.704;0.152;2023-12-07T09:56:30;12.90;99.90
10175;DHT22;18221;38.704;0.152;2023-12-07T09:58:58;13.00;99.90
10175;DHT22;18221;38.704;0.152;2023-12-07T10:01:28;13.00;99.90
10175;DHT22;18221;38.704;0.152;2023-12-07T10:04:16;13.10;99.90
10175;DHT22;18221;38.704;0.152;2023-12-07T10:06:50;13.20;99.90
10175;DHT22;18221;38.704;0.152;2023-12-07T10:09:19;13.20;99.90
10175;DHT22;18221;38.704;0.152;2023-12-07T10:11:47;13.30;99.90
10175;DHT22;18221;38.704;0.152;2023-12-07T10:14:18;13.30;99.90
10175;DHT22;18221;38.704;0.152;2023-12-07T10:16:53;13.30;99.90
10175;DHT22;18221;38.704;0.152;2023-12-07T10:19:23;12.70;99.90
10175;DHT22;18221;38.704;0.152;2023-12-07T10:21:53;13.40;99.90
10175;DHT22;18221;38.704;0.152;2023-12-07T10:24:25;13.40;99.90
10175;DHT22;18221;38.704;0.152;2023-12-07T10:26:54;13.40;99.90
10175;DHT22;18221;38.704;0.152;2023-12-07T10:29:25;13.50;99.90
10175;DHT22;18221;38.704;0.152;2023-12-07T10:32:01;13.60;99.90
10175;DHT22;18221;38.704;0.152;2023-12-07T10:34:31;13.70;99.90
10175;DHT22;18221;38.704;0.152;2023-12-07T10:37:01;13.80;99.90
10175;DHT22;18221;38.704;0.152;2023-12-07T10:39:32;13.70;99.90
10175;DHT22;18221;38.704;0.152;2023-12-07T10:42:02;13.80;99.90
10175;DHT22;18221;38.704;0.152;2023-12-07T10:44:41;13.90;99.90
10175;DHT22;18221;38.704;0.152;2023-12-07T10:47:10;14.00;99.90
10175;DHT22;18221;38.704;0.152;2023-12-07T10:49:41;14.10;99.90
10175;DHT22;18221;38.704;0.152;2023-12-07T10:52:14;14.10;99.90
10175;DHT22;18221;38.704;0.152;2023-12-07T10:54:53;14.10;99.90
10175;DHT22;18221;38.704;0.152;2023-12-07T10:57:30;14.00;99.90
10175;DHT22;18221;38.704;0.152;2023-12-07T11:00:02;14.00;99.90
10175;DHT22;18221;38.704;0.152;2023-12-07T11:02:32;14.00;99.90
10175;DHT22;18221;38.704;0.152;2023-12-07T11:05:02;14.00;99.90
10175;DHT22;18221;38.704;0.152;2023-12-07T11:07:42;13.90;99.90
10175;DHT22;18221;38.704;0.152;2023-12-07T11:10:39;13.90;99.90
10175;DHT22;18221;38.704;0.152;2023-12-07T11:13:18;14.00;99.90
10175;DHT22;18221;38.704;0.152;2023-12-07T11:15:51;13.90;99.90
10175;DHT22;18221;38.704;0.152;2023-12-07T11:18:20;14.00;99.90
10175;DHT22;18221;38.704;0.152;2023-12-07T11:20:48;14.00;99.90
10175;DHT22;18221;38.704;0.152;2023-12-07T11:23:19;14.00;99.90
10175;DHT22;18221;38.704;0.152;2023-12-07T11:25:51;14.10;99.90
10175;DHT22;18221;38.704;0.152;2023-12-07T11:28:34;14.20;99.90
10175;DHT22;18221;38.704;0.152;2023-12-07T11:31:03;14.20;99.90
10175;DHT22;18221;38.704;0.152;2023-12-07T11:33:33;14.40;99.90
10175;DHT22;18221;38.704;0.152;2023-12-07T11:36:05;14.50;99.90
10175;DHT22;18221;38.704;0.152;2023-12-07T11:38:36;14.50;99.90
10175;DHT22;18221;38.704;0.152;2023-12-07T11:41:06;14.50;99.90
10175;DHT22;18221;38.704;0.152;2023-12-07T11:43:41;14.60;99.90
10175;DHT22;18221;38.704;0.152;2023-12-07T11:46:13;14.60;99.90
10175;DHT22;18221;38.704;0.152;2023-12-07T11:48:48;14.60;99.90
10175;DHT22;18221;38.704;0.152;2023-12-07T11:51:16;14.60;99.90
10175;DHT22;18221;38.704;0.152;2023-12-07T11:53:44;14.60;99.90
10175;DHT22;18221;38.704;0.152;2023-12-07T11:56:17;14.60;99.90
10175;DHT22;18221;38.704;0.152;2023-12-07T11:58:47;14.60;99.90
10175;DHT22;18221;38.704;0.152;2023-12-07T12:01:16;14.60;99.90
10175;DHT22;18221;38.704;0.152;2023-12-07T12:03:44;14.70;99.90
10175;DHT22;18221;38.704;0.152;2023-12-07T12:06:12;14.80;99.90
10175;DHT22;18221;38.704;0.152;2023-12-07T12:08:41;14.80;99.90
10175;DHT22;18221;38.704;0.152;2023-12-07T12:11:09;14.90;99.90
10175;DHT22;18221;38.704;0.152;2023-12-07T12:13:39;14.90;99.90
10175;DHT22;18221;38.704;0.152;2023-12-07T12:16:08;14.90;99.90
10175;DHT22;18221;38.704;0.152;2023-12-07T12:18:36;15.00;99.90
10175;DHT22;18221;38.704;0.152;2023-12-07T12:21:07;15.00;99.90
10175;DHT22;18221;38.704;0.152;2023-12-07T12:23:35;15.00;99.90
10175;DHT22;18221;38.704;0.152;2023-12-07T12:26:06;15.00;99.90
10175;DHT22;18221;38.704;0.152;2023-12-07T12:28:38;15.10;99.90
10175;DHT22;18221;38.704;0.152;2023-12-07T12:31:09;15.10;99.90
10175;DHT22;18221;38.704;0.152;2023-12-07T12:33:38;15.20;99.90
10175;DHT22;18221;38.704;0.152;2023-12-07T12:36:07;15.20;99.90
10175;DHT22;18221;38.704;0.152;2023-12-07T12:38:36;15.20;99.90
10175;DHT22;18221;38.704;0.152;2023-12-07T12:41:05;15.10;99.90
10175;DHT22;18221;38.704;0.152;2023-12-07T12:43:34;15.20;99.90
10175;DHT22;18221;38.704;0.152;2023-12-07T12:46:04;17.20;99.90
10175;DHT22;18221;38.704;0.152;2023-12-07T12:48:32;15.10;99.90
10175;DHT22;18221;38.704;0.152;2023-12-07T12:51:07;15.00;99.90
10175;DHT22;18221;38.704;0.152;2023-12-07T12:53:42;15.00;99.90
10175;DHT22;18221;38.704;0.152;2023-12-07T12:56:12;15.00;99.90
10175;DHT22;18221;38.704;0.152;2023-12-07T12:58:41;15.10;99.90
10175;DHT22;18221;38.704;0.152;2023-12-07T13:01:11;15.00;99.90
10175;DHT22;18221;38.704;0.152;2023-12-07T13:03:39;15.00;99.90
10175;DHT22;18221;38.704;0.152;2023-12-07T13:06:08;15.10;99.90
10175;DHT22;18221;38.704;0.152;2023-12-07T13:08:36;15.10;99.90
10175;DHT22;18221;38.704;0.152;2023-12-07T13:11:04;15.10;99.90
10175;DHT22;18221;38.704;0.152;2023-12-07T13:13:32;15.10;99.90
10175;DHT22;18221;38.704;0.152;2023-12-07T13:16:00;15.10;99.90
10175;DHT22;18221;38.704;0.152;2023-12-07T13:18:30;15.20;99.90
10175;DHT22;18221;38.704;0.152;2023-12-07T13:20:58;15.30;99.90
10175;DHT22;18221;38.704;0.152;2023-12-07T13:23:26;15.20;99.90
10175;DHT22;18221;38.704;0.152;2023-12-07T13:25:54;15.30;99.90
10175;DHT22;18221;38.704;0.152;2023-12-07T13:28:22;15.20;99.90
10175;DHT22;18221;38.704;0.152;2023-12-07T13:30:50;15.30;99.90
10175;DHT22;18221;38.704;0.152;2023-12-07T13:33:19;15.20;99.90
10175;DHT22;18221;38.704;0.152;2023-12-07T13:35:50;15.30;99.90
10175;DHT22;18221;38.704;0.152;2023-12-07T13:38:20;15.30;99.90
10175;DHT22;18221;38.704;0.152;2023-12-07T13:40:49;15.20;99.90
10175;DHT22;18221;38.704;0.152;2023-12-07T13:43:17;15.20;99.90
10175;DHT22;18221;38.704;0.152;2023-12-07T13:45:45;15.10;99.90
10175;DHT22;18221;38.704;0.152;2023-12-07T13:48:13;15.10;99.90
10175;DHT22;18221;38.704;0.152;2023-12-07T13:50:42;15.10;99.90
10175;DHT22;18221;38.704;0.152;2023-12-07T13:53:12;15.10;99.90
10175;DHT22;18221;38.704;0.152;2023-12-07T13:55:40;15.20;99.90
10175;DHT22;18221;38.704;0.152;2023-12-07T13:58:08;15.30;99.90
10175;DHT22;18221;38.704;0.152;2023-12-07T14:00:37;15.20;99.90
10175;DHT22;18221;38.704;0.152;2023-12-07T14:03:05;15.20;99.90
10175;DHT22;18221;38.704;0.152;2023-12-07T14:05:33;15.20;99.90
10175;DHT22;18221;38.704;0.152;2023-12-07T14:08:01;15.30;99.90
10175;DHT22;18221;38.704;0.152;2023-12-07T14:10:30;15.20;99.90
10175;DHT22;18221;38.704;0.152;2023-12-07T14:12:58;15.30;99.90
10175;DHT22;18221;38.704;0.152;2023-12-07T14:15:26;15.30;99.90
10175;DHT22;18221;38.704;0.152;2023-12-07T14:17:55;15.30;99.90
10175;DHT22;18221;38.704;0.152;2023-12-07T14:20:24;15.30;99.90
10175;DHT22;18221;38.704;0.152;2023-12-07T14:22:54;15.20;99.90
10175;DHT22;18221;38.704;0.152;2023-12-07T14:25:22;15.20;99.90
10175;DHT22;18221;38.704;0.152;2023-12-07T14:27:51;15.10;99.90
10175;DHT22;18221;38.704;0.152;2023-12-07T14:30:19;15.10;99.90
10175;DHT22;18221;38.704;0.152;2023-12-07T14:32:48;15.10;99.90
10175;DHT22;18221;38.704;0.152;2023-12-07T14:35:18;15.10;99.90
10175;DHT22;18221;38.704;0.152;2023-12-07T14:37:46;15.00;99.90
10175;DHT22;18221;38.704;0.152;2023-12-07T14:40:16;15.00;99.90
10175;DHT22;18221;38.704;0.152;2023-12-07T14:42:44;14.90;99.90
10175;DHT22;18221;38.704;0.152;2023-12-07T14:45:13;14.80;99.90
10175;DHT22;18221;38.704;0.152;2023-12-07T14:47:42;14.90;99.90
10175;DHT22;18221;38.704;0.152;2023-12-07T14:50:11;14.90;99.90
10175;DHT22;18221;38.704;0.152;2023-12-07T14:52:39;14.80;99.90
10175;DHT22;18221;38.704;0.152;2023-12-07T14:55:08;14.70;99.90
10175;DHT22;18221;38.704;0.152;2023-12-07T14:57:36;14.70;99.90
10175;DHT22;18221;38.704;0.152;2023-12-07T15:00:04;14.60;99.90
10175;DHT22;18221;38.704;0.152;2023-12-07T15:02:35;14.70;99.90
10175;DHT22;18221;38.704;0.152;2023-12-07T15:05:04;14.70;99.90
10175;DHT22;18221;38.704;0.152;2023-12-07T15:07:34;14.80;99.90
10175;DHT22;18221;38.704;0.152;2023-12-07T15:10:02;14.80;99.90
10175;DHT22;18221;38.704;0.152;2023-12-07T15:12:30;14.80;99.90
10175;DHT22;18221;38.704;0.152;2023-12-07T15:14:58;14.70;99.90
10175;DHT22;18221;38.704;0.152;2023-12-07T15:17:26;14.70;99.90
10175;DHT22;18221;38.704;0.152;2023-12-07T15:19:56;14.70;99.90
10175;DHT22;18221;38.704;0.152;2023-12-07T15:22:24;14.80;99.90
10175;DHT22;18221;38.704;0.152;2023-12-07T15:24:54;14.80;99.90
10175;DHT22;18221;38.704;0.152;2023-12-07T15:27:21;14.80;99.90
10175;DHT22;18221;38.704;0.152;2023-12-07T15:29:50;14.80;99.90
10175;DHT22;18221;38.704;0.152;2023-12-07T15:32:18;14.80;99.90
10175;DHT22;18221;38.704;0.152;2023-12-07T15:34:47;14.80;99.90
10175;DHT22;18221;38.704;0.152;2023-12-07T15:37:16;14.80;99.90
10175;DHT22;18221;38.704;0.152;2023-12-07T15:39:45;14.70;99.90
10175;DHT22;18221;38.704;0.152;2023-12-07T15:42:13;14.70;99.90
10175;DHT22;18221;38.704;0.152;2023-12-07T15:44:41;14.70;99.90
10175;DHT22;18221;38.704;0.152;2023-12-07T15:47:09;14.60;99.90
10175;DHT22;18221;38.704;0.152;2023-12-07T15:49:37;14.60;99.90
10175;DHT22;18221;38.704;0.152;2023-12-07T15:52:07;14.50;99.90